createdAt,value
2017-10-28T00:01:00.310Z,12.47
2017-10-28T00:03:27.905Z,11.80
2017-10-28T00:05:56.253Z,8.23
2017-10-28T00:08:23.794Z,18.60
2017-10-28T00:10:51.392Z,9.30
2017-10-28T00:13:19.116Z,11.77
2017-10-28T00:15:46.730Z,8.93
2017-10-28T00:18:14.428Z,12.53
2017-10-28T00:20:42.751Z,13.30
2017-10-28T00:23:10.324Z,8.10
2017-10-28T00:25:37.910Z,11.18
2017-10-28T00:28:06.265Z,6.05
2017-10-28T00:30:39.540Z,13.75
2017-10-28T00:33:12.894Z,12.10
2017-10-28T00:35:45.991Z,9.07
2017-10-28T00:38:13.569Z,10.95
2017-10-28T00:40:41.167Z,12.52
2017-10-28T00:43:08.731Z,14.25
2017-10-28T00:45:36.540Z,9.27
2017-10-28T00:48:04.143Z,9.18
2017-10-28T00:50:31.772Z,9.32
2017-10-28T00:52:59.364Z,9.93
2017-10-28T00:55:27.082Z,12.70
2017-10-28T00:57:54.663Z,16.20
2017-10-28T01:00:22.230Z,10.73
2017-10-28T01:02:49.903Z,11.90
2017-10-28T01:05:17.468Z,8.80
2017-10-28T01:07:45.058Z,10.57
2017-10-28T01:10:12.635Z,7.60
2017-10-28T01:12:40.967Z,5.70
2017-10-28T01:15:08.630Z,10.45
2017-10-28T01:17:36.186Z,10.63
2017-10-28T01:20:03.782Z,10.88
2017-10-28T01:22:31.335Z,8.90
2017-10-28T01:24:58.924Z,8.30
2017-10-28T01:27:26.515Z,8.20
2017-10-28T01:29:54.094Z,12.87
2017-10-28T01:32:21.682Z,11.30
2017-10-28T01:34:49.237Z,11.53
2017-10-28T01:37:16.869Z,8.57
2017-10-28T01:39:44.543Z,15.90
2017-10-28T01:42:12.102Z,11.70
2017-10-28T01:44:39.650Z,13.43
2017-10-28T01:47:07.221Z,8.77
2017-10-28T01:49:34.808Z,13.90
2017-10-28T01:52:02.385Z,11.40
2017-10-28T01:54:30.806Z,7.83
2017-10-28T01:56:58.408Z,11.23
2017-10-28T01:59:25.972Z,7.70
2017-10-28T02:01:53.535Z,12.40
2017-10-28T02:04:21.126Z,10.60
2017-10-28T02:06:48.742Z,12.73
2017-10-28T02:09:16.339Z,7.63
2017-10-28T02:11:44.067Z,9.93
2017-10-28T02:14:11.631Z,8.90
2017-10-28T02:16:39.219Z,13.33
2017-10-28T02:19:06.794Z,13.33
2017-10-28T02:21:34.365Z,9.90
2017-10-28T02:24:02.034Z,15.10
2017-10-28T02:26:30.370Z,12.63
2017-10-28T02:28:57.946Z,12.90
2017-10-28T02:31:25.493Z,14.67
2017-10-28T02:33:53.087Z,8.90
2017-10-28T02:36:21.437Z,15.43
2017-10-28T02:38:49.070Z,22.85
2017-10-28T02:41:16.655Z,15.57
2017-10-28T02:43:44.238Z,15.93
2017-10-28T02:46:11.814Z,13.93
2017-10-28T02:48:39.378Z,18.05
2017-10-28T02:51:07.736Z,21.35
2017-10-28T02:53:35.298Z,14.65
2017-10-28T02:56:02.882Z,12.90
2017-10-28T02:58:31.245Z,11.90
2017-10-28T03:00:58.823Z,8.00
2017-10-28T03:03:26.466Z,14.30
2017-10-28T03:05:54.811Z,9.10
2017-10-28T03:08:22.442Z,11.50
2017-10-28T03:10:50.752Z,7.63
2017-10-28T03:13:18.535Z,10.73
2017-10-28T03:15:46.083Z,10.63
2017-10-28T03:18:13.686Z,12.03
2017-10-28T03:20:41.282Z,10.68
2017-10-28T03:23:09.603Z,7.27
2017-10-28T03:25:37.211Z,9.77
2017-10-28T03:28:04.954Z,9.07
2017-10-28T03:30:32.765Z,10.43
2017-10-28T03:33:00.346Z,8.83
2017-10-28T03:35:27.913Z,13.18
2017-10-28T03:37:55.506Z,14.53
2017-10-28T03:40:23.081Z,12.30
2017-10-28T03:42:50.665Z,14.70
2017-10-28T03:45:19.007Z,12.60
2017-10-28T03:47:46.586Z,15.20
2017-10-28T03:50:14.979Z,16.47
2017-10-28T03:52:43.306Z,10.27
2017-10-28T03:55:11.061Z,14.80
2017-10-28T03:57:38.629Z,18.43
2017-10-28T04:00:06.287Z,9.97
2017-10-28T04:02:33.970Z,15.40
2017-10-28T04:05:01.643Z,14.23
2017-10-28T04:07:29.387Z,9.23
2017-10-28T04:09:56.983Z,9.38
2017-10-28T04:12:24.544Z,16.15
2017-10-28T04:14:52.934Z,17.12
2017-10-28T04:17:20.515Z,15.40
2017-10-28T04:19:48.105Z,9.85
2017-10-28T04:22:15.660Z,14.82
2017-10-28T04:24:43.237Z,15.63
2017-10-28T04:27:10.797Z,18.75
2017-10-28T04:29:38.755Z,14.60
2017-10-28T04:32:06.367Z,15.32
2017-10-28T04:34:35.524Z,14.93
2017-10-28T04:37:03.150Z,11.93
2017-10-28T04:39:31.474Z,13.38
2017-10-28T04:41:59.082Z,18.02
2017-10-28T04:44:26.682Z,15.70
2017-10-28T04:46:54.254Z,17.25
2017-10-28T04:49:21.948Z,20.02
2017-10-28T04:51:49.500Z,16.83
2017-10-28T04:54:17.095Z,17.23
2017-10-28T04:56:44.666Z,16.92
2017-10-28T04:59:12.995Z,13.82
2017-10-28T05:01:40.583Z,16.40
2017-10-28T05:04:08.967Z,16.40
2017-10-28T05:06:36.703Z,30.10
2017-10-28T05:09:04.340Z,17.90
2017-10-28T05:11:33.028Z,15.82
2017-10-28T05:14:00.620Z,13.98
2017-10-28T05:16:28.297Z,14.98
2017-10-28T05:18:55.959Z,12.70
2017-10-28T05:21:23.555Z,17.27
2017-10-28T05:23:51.126Z,20.50
2017-10-28T05:26:19.295Z,19.25
2017-10-28T05:28:46.959Z,16.20
2017-10-28T05:31:14.578Z,17.10
2017-10-28T05:33:42.193Z,21.08
2017-10-28T05:36:09.808Z,13.32
2017-10-28T05:38:37.362Z,15.18
2017-10-28T05:41:04.930Z,12.68
2017-10-28T05:43:32.478Z,20.52
2017-10-28T05:46:00.963Z,18.05
2017-10-28T05:48:28.564Z,19.10
2017-10-28T05:50:56.950Z,15.57
2017-10-28T05:53:24.551Z,16.02
2017-10-28T05:55:52.111Z,18.23
2017-10-28T05:58:19.698Z,12.82
2017-10-28T06:00:47.261Z,14.00
2017-10-28T06:03:14.864Z,17.25
2017-10-28T06:05:42.427Z,14.13
2017-10-28T06:08:10.795Z,11.57
2017-10-28T06:10:41.114Z,7.68
2017-10-28T06:13:08.679Z,11.73
2017-10-28T06:15:37.035Z,13.82
2017-10-28T06:18:04.639Z,12.30
2017-10-28T06:20:33.003Z,15.57
2017-10-28T06:23:01.365Z,13.40
2017-10-28T06:25:28.966Z,18.70
2017-10-28T06:27:57.299Z,9.52
2017-10-28T06:30:24.894Z,9.80
2017-10-28T06:32:52.486Z,11.05
2017-10-28T06:35:20.853Z,11.55
2017-10-28T06:37:49.279Z,8.60
2017-10-28T06:40:16.895Z,16.20
2017-10-28T06:42:44.465Z,12.05
2017-10-28T06:45:12.942Z,18.48
2017-10-28T06:47:41.283Z,14.63
2017-10-28T06:50:08.874Z,10.60
2017-10-28T06:52:36.474Z,9.77
2017-10-28T06:55:04.046Z,13.98
2017-10-28T06:57:31.743Z,14.77
2017-10-28T06:59:59.350Z,11.67
2017-10-28T07:02:27.699Z,13.23
2017-10-28T07:04:56.073Z,15.80
2017-10-28T07:07:23.672Z,10.23
2017-10-28T07:09:52.024Z,16.43
2017-10-28T07:12:19.692Z,12.13
2017-10-28T07:14:47.258Z,12.50
2017-10-28T07:17:14.846Z,12.53
2017-10-28T07:19:42.411Z,11.80
2017-10-28T07:22:10.741Z,11.60
2017-10-28T07:24:38.296Z,10.07
2017-10-28T07:27:05.869Z,12.60
2017-10-28T07:29:33.423Z,14.03
2017-10-28T07:32:01.005Z,17.50
2017-10-28T07:34:28.594Z,13.90
2017-10-28T07:36:57.053Z,19.53
2017-10-28T07:39:24.680Z,12.40
2017-10-28T07:41:52.255Z,12.43
2017-10-28T07:44:19.823Z,11.73
2017-10-28T07:46:47.408Z,14.80
2017-10-28T07:49:14.966Z,19.60
2017-10-28T07:51:42.539Z,14.83
2017-10-28T07:54:10.902Z,15.37
2017-10-28T07:56:39.319Z,11.90
2017-10-28T07:59:07.656Z,16.13
2017-10-28T08:01:35.218Z,16.77
2017-10-28T08:04:08.457Z,11.63
2017-10-28T08:06:36.797Z,12.13
2017-10-28T08:09:04.824Z,15.90
2017-10-28T08:11:32.391Z,13.90
2017-10-28T08:13:59.966Z,11.40
2017-10-28T08:16:27.798Z,13.20
2017-10-28T08:18:55.368Z,15.40
2017-10-28T08:21:22.985Z,13.70
2017-10-28T08:23:50.547Z,14.83
2017-10-28T08:26:18.226Z,11.10
2017-10-28T08:28:45.871Z,12.13
2017-10-28T08:31:13.469Z,14.77
2017-10-28T08:33:42.633Z,12.70
2017-10-28T08:36:10.332Z,11.13
2017-10-28T08:38:38.682Z,18.00
2017-10-28T08:41:19.087Z,10.53
2017-10-28T08:43:47.650Z,15.40
2017-10-28T08:46:16.313Z,14.70
2017-10-28T08:48:44.788Z,12.97
2017-10-28T08:51:12.441Z,9.63
2017-10-28T08:53:40.815Z,9.83
2017-10-28T08:56:08.603Z,13.90
2017-10-28T08:58:36.167Z,10.90
2017-10-28T09:01:03.751Z,11.13
2017-10-28T09:03:31.376Z,17.63
2017-10-28T09:05:58.972Z,23.17
2017-10-28T09:08:26.578Z,14.20
2017-10-28T09:10:54.255Z,19.40
2017-10-28T09:13:21.895Z,10.70
2017-10-28T09:15:51.309Z,13.97
2017-10-28T09:18:19.033Z,15.07
2017-10-28T09:20:46.606Z,9.40
2017-10-28T09:23:14.524Z,8.97
2017-10-28T09:25:42.991Z,9.37
2017-10-28T09:28:10.851Z,11.80
2017-10-28T09:30:39.483Z,17.33
2017-10-28T09:33:08.092Z,14.93
2017-10-28T09:35:35.675Z,10.87
2017-10-28T09:38:04.158Z,10.97
2017-10-28T09:40:32.681Z,13.03
2017-10-28T09:43:00.303Z,12.90
2017-10-28T09:45:28.663Z,12.13
2017-10-28T09:47:57.182Z,12.17
2017-10-28T09:50:25.083Z,12.33
2017-10-28T09:52:52.683Z,14.43
2017-10-28T09:55:20.299Z,14.17
2017-10-28T09:57:47.902Z,10.63
2017-10-28T10:00:15.623Z,11.80
2017-10-28T10:02:43.227Z,10.60
2017-10-28T10:05:11.795Z,10.00
2017-10-28T10:07:39.372Z,10.80
2017-10-28T10:10:07.764Z,15.07
2017-10-28T10:12:35.363Z,7.10
2017-10-28T10:15:02.979Z,8.87
2017-10-28T10:17:30.562Z,12.23
2017-10-28T10:19:58.147Z,10.20
2017-10-28T10:22:25.844Z,8.20
2017-10-28T10:24:53.412Z,12.00
2017-10-28T10:27:21.756Z,13.07
2017-10-28T10:29:49.340Z,8.83
2017-10-28T10:32:16.926Z,10.10
2017-10-28T10:34:45.309Z,8.83
2017-10-28T10:37:12.867Z,11.07
2017-10-28T10:39:41.235Z,7.23
2017-10-28T10:42:08.806Z,6.13
2017-10-28T10:44:37.164Z,7.53
2017-10-28T10:47:04.716Z,10.63
2017-10-28T10:49:33.535Z,9.50
2017-10-28T10:52:01.092Z,10.50
2017-10-28T10:54:28.652Z,15.70
2017-10-28T10:56:56.230Z,5.97
2017-10-28T10:59:24.574Z,8.63
2017-10-28T11:01:52.322Z,12.17
2017-10-28T11:04:19.935Z,13.53
2017-10-28T11:06:48.292Z,9.70
2017-10-28T11:09:16.765Z,12.50
2017-10-28T11:11:44.372Z,9.77
2017-10-28T11:14:12.728Z,10.23
2017-10-28T11:16:40.635Z,9.07
2017-10-28T11:19:08.231Z,9.73
2017-10-28T11:21:35.815Z,7.23
2017-10-28T11:24:03.399Z,11.77
2017-10-28T11:26:31.735Z,10.03
2017-10-28T11:28:59.345Z,7.47
2017-10-28T11:31:27.678Z,11.80
2017-10-28T11:33:55.239Z,9.23
2017-10-28T11:36:22.808Z,9.30
2017-10-28T11:38:50.400Z,10.03
2017-10-28T11:41:17.990Z,8.70
2017-10-28T11:43:45.566Z,9.30
2017-10-28T11:46:13.146Z,14.60
2017-10-28T11:48:40.748Z,7.00
2017-10-28T11:51:08.367Z,9.77
2017-10-28T11:53:35.972Z,13.43
2017-10-28T11:56:03.522Z,11.17
2017-10-28T11:58:31.921Z,10.30
2017-10-28T12:01:00.287Z,10.60
2017-10-28T12:03:28.014Z,8.77
2017-10-28T12:05:55.612Z,10.63
2017-10-28T12:08:23.941Z,8.90
2017-10-28T12:10:51.520Z,8.50
2017-10-28T12:13:19.167Z,11.43
2017-10-28T12:15:46.822Z,9.97
2017-10-28T12:18:14.406Z,12.10
2017-10-28T12:20:41.984Z,6.63
2017-10-28T12:23:09.615Z,9.20
2017-10-28T12:25:37.325Z,10.43
2017-10-28T12:28:04.904Z,10.63
2017-10-28T12:30:33.283Z,9.70
2017-10-28T12:33:01.614Z,10.27
2017-10-28T12:35:29.220Z,13.00
2017-10-28T12:37:57.551Z,13.43
2017-10-28T12:40:25.203Z,7.73
2017-10-28T12:42:52.828Z,7.20
2017-10-28T12:45:21.206Z,9.30
2017-10-28T12:47:48.849Z,11.23
2017-10-28T12:50:16.432Z,10.00
2017-10-28T12:52:44.035Z,9.17
2017-10-28T12:55:11.637Z,10.10
2017-10-28T12:57:40.059Z,11.70
2017-10-28T13:00:08.414Z,11.27
2017-10-28T13:02:36.134Z,9.40
2017-10-28T13:05:03.711Z,12.20
2017-10-28T13:07:31.284Z,9.17
2017-10-28T13:09:58.862Z,8.70
2017-10-28T13:12:26.467Z,9.07
2017-10-28T13:14:54.034Z,14.10
2017-10-28T13:17:21.609Z,7.43
2017-10-28T13:19:49.383Z,12.20
2017-10-28T13:22:16.941Z,12.33
2017-10-28T13:24:44.508Z,11.40
2017-10-28T13:27:12.103Z,11.23
2017-10-28T13:29:39.665Z,11.80
2017-10-28T13:32:08.004Z,13.03
2017-10-28T13:34:35.793Z,9.77
2017-10-28T13:37:03.403Z,7.83
2017-10-28T13:39:31.005Z,11.00
2017-10-28T13:41:58.764Z,14.57
2017-10-28T13:44:26.335Z,7.10
2017-10-28T13:46:54.006Z,8.43
2017-10-28T13:49:21.598Z,13.47
2017-10-28T13:51:49.270Z,8.00
2017-10-28T13:54:16.845Z,11.03
2017-10-28T13:56:44.432Z,12.33
2017-10-28T13:59:11.986Z,8.47
2017-10-28T14:01:40.334Z,14.37
2017-10-28T14:04:07.928Z,9.40
2017-10-28T14:06:36.273Z,9.33
2017-10-28T14:09:03.832Z,11.70
2017-10-28T14:11:31.387Z,7.83
2017-10-28T14:13:59.102Z,8.30
2017-10-28T14:16:26.690Z,11.27
2017-10-28T14:18:54.270Z,11.37
2017-10-28T14:21:21.808Z,11.97
2017-10-28T14:23:49.402Z,11.60
2017-10-28T14:26:16.984Z,10.60
2017-10-28T14:28:45.376Z,10.00
2017-10-28T14:31:13.775Z,16.47
2017-10-28T14:33:41.355Z,9.70
2017-10-28T14:36:08.958Z,11.30
2017-10-28T14:38:36.581Z,14.03
2017-10-28T14:41:04.714Z,14.00
2017-10-28T14:43:33.066Z,11.87
2017-10-28T14:46:00.650Z,12.20
2017-10-28T14:48:29.026Z,8.70
2017-10-28T14:50:56.646Z,10.70
2017-10-28T14:53:24.240Z,9.70
2017-10-28T14:55:52.609Z,8.80
2017-10-28T14:58:20.235Z,8.93
2017-10-28T15:00:47.844Z,13.67
2017-10-28T15:03:15.414Z,17.63
2017-10-28T15:05:43.010Z,7.90
2017-10-28T15:08:10.632Z,10.83
2017-10-28T15:10:49.921Z,7.97
2017-10-28T15:13:17.501Z,11.80
2017-10-28T15:15:45.115Z,11.10
2017-10-28T15:18:13.441Z,8.60
2017-10-28T15:20:41.042Z,14.03
2017-10-28T15:23:08.615Z,8.20
2017-10-28T15:25:36.996Z,14.67
2017-10-28T15:28:05.368Z,14.03
2017-10-28T15:30:32.996Z,13.93
2017-10-28T15:33:00.620Z,10.67
2017-10-28T15:35:28.195Z,18.00
2017-10-28T15:37:55.747Z,13.93
2017-10-28T15:40:23.359Z,11.27
2017-10-28T15:42:51.075Z,13.37
2017-10-28T15:45:18.635Z,7.83
2017-10-28T15:47:46.246Z,8.43
2017-10-28T15:50:13.798Z,9.50
2017-10-28T15:52:41.379Z,13.50
2017-10-28T15:55:09.005Z,11.17
2017-10-28T15:57:36.550Z,8.13
2017-10-28T16:00:04.139Z,8.87
2017-10-28T16:02:31.702Z,10.63
2017-10-28T16:04:59.404Z,11.40
2017-10-28T16:07:26.972Z,8.80
2017-10-28T16:09:54.549Z,10.37
2017-10-28T16:12:22.132Z,20.80
2017-10-28T16:14:50.487Z,11.13
2017-10-28T16:17:18.058Z,10.40
2017-10-28T16:19:45.655Z,9.37
2017-10-28T16:22:13.235Z,11.37
2017-10-28T16:24:40.829Z,19.20
2017-10-28T16:27:08.439Z,12.13
2017-10-28T16:29:36.020Z,11.33
2017-10-28T16:32:03.601Z,12.63
2017-10-28T16:34:31.236Z,8.97
2017-10-28T16:36:58.849Z,12.77
2017-10-28T16:39:26.438Z,8.53
2017-10-28T16:41:54.792Z,9.10
2017-10-28T16:44:22.420Z,10.23
2017-10-28T16:46:50.014Z,9.90
2017-10-28T16:49:18.345Z,12.00
2017-10-28T16:51:45.953Z,10.30
2017-10-28T16:54:13.569Z,9.10
2017-10-28T16:56:41.543Z,10.23
2017-10-28T16:59:09.139Z,10.03
2017-10-28T17:01:36.723Z,7.97
2017-10-28T17:04:04.409Z,10.03
2017-10-28T17:06:31.970Z,9.23
2017-10-28T17:09:00.165Z,12.77
2017-10-28T17:11:28.520Z,10.63
2017-10-28T17:13:56.181Z,10.93
2017-10-28T17:16:23.887Z,8.30
2017-10-28T17:18:52.247Z,13.93
2017-10-28T17:21:19.839Z,8.60
2017-10-28T17:23:47.495Z,8.20
2017-10-28T17:26:15.087Z,10.10
2017-10-28T17:28:42.701Z,10.70
2017-10-28T17:31:10.303Z,8.17
2017-10-28T17:33:37.904Z,11.17
2017-10-28T17:36:06.380Z,8.97
2017-10-28T17:38:34.167Z,10.13
2017-10-28T17:41:02.559Z,8.50
2017-10-28T17:43:31.131Z,7.40
2017-10-28T17:45:58.772Z,7.87
2017-10-28T17:48:26.363Z,11.33
2017-10-28T17:50:53.946Z,5.57
2017-10-28T17:53:21.539Z,12.57
2017-10-28T17:55:49.174Z,9.80
2017-10-28T17:58:16.760Z,8.10
2017-10-28T18:00:45.161Z,8.57
2017-10-28T18:03:13.467Z,10.43
2017-10-28T18:05:42.770Z,6.27
2017-10-28T18:08:10.394Z,8.77
2017-10-28T18:10:37.990Z,7.83
2017-10-28T18:13:05.583Z,8.40
2017-10-28T18:15:33.209Z,11.93
2017-10-28T18:18:00.830Z,7.07
2017-10-28T18:20:28.414Z,8.30
2017-10-28T18:22:57.024Z,6.50
2017-10-28T18:25:24.738Z,6.90
2017-10-28T18:27:52.358Z,7.30
2017-10-28T18:30:19.957Z,7.20
2017-10-28T18:32:47.516Z,7.43
2017-10-28T18:35:15.111Z,8.33
2017-10-28T18:37:42.683Z,7.93
2017-10-28T18:40:10.301Z,6.90
2017-10-28T18:42:37.869Z,13.70
2017-10-28T18:45:05.422Z,8.67
2017-10-28T18:47:33.008Z,8.03
2017-10-28T18:50:00.750Z,8.70
2017-10-28T18:52:28.360Z,9.43
2017-10-28T18:54:56.116Z,9.10
2017-10-28T18:57:23.835Z,7.50
2017-10-28T18:59:51.533Z,9.30
2017-10-28T19:02:19.154Z,15.43
2017-10-28T19:04:47.512Z,10.10
2017-10-28T19:07:15.875Z,10.70
2017-10-28T19:09:43.447Z,9.60
2017-10-28T19:12:11.066Z,11.27
2017-10-28T19:14:38.619Z,10.40
2017-10-28T19:17:06.323Z,11.47
2017-10-28T19:19:33.919Z,9.87
2017-10-28T19:22:02.412Z,11.87
2017-10-28T19:24:30.147Z,12.40
2017-10-28T19:26:57.720Z,13.00
2017-10-28T19:29:26.075Z,10.77
2017-10-28T19:31:53.707Z,11.03
2017-10-28T19:34:21.297Z,11.43
2017-10-28T19:36:48.873Z,12.87
2017-10-28T19:39:16.467Z,12.83
2017-10-28T19:41:44.071Z,14.70
2017-10-28T19:44:12.531Z,12.83
2017-10-28T19:46:40.106Z,13.63
2017-10-28T19:49:07.850Z,12.13
2017-10-28T19:51:35.439Z,12.90
2017-10-28T19:54:03.023Z,11.90
2017-10-28T19:56:30.596Z,12.53
2017-10-28T19:58:58.957Z,13.97
2017-10-28T20:01:26.557Z,15.17
2017-10-28T20:03:54.125Z,17.83
2017-10-28T20:06:21.709Z,12.93
2017-10-28T20:08:49.266Z,14.73
2017-10-28T20:11:16.849Z,15.93
2017-10-28T20:13:44.440Z,18.67
2017-10-28T20:16:12.041Z,16.47
2017-10-28T20:18:39.656Z,19.50
2017-10-28T20:21:07.221Z,18.80
2017-10-28T20:23:35.588Z,20.70
2017-10-28T20:26:03.180Z,20.43
2017-10-28T20:28:31.639Z,23.37
2017-10-28T20:30:59.209Z,18.73
2017-10-28T20:33:26.990Z,18.77
2017-10-28T20:35:54.578Z,19.87
2017-10-28T20:38:22.157Z,18.97
2017-10-28T20:40:49.766Z,18.87
2017-10-28T20:43:18.120Z,20.47
2017-10-28T20:45:45.727Z,19.07
2017-10-28T20:48:13.313Z,22.43
2017-10-28T20:50:40.881Z,20.63
2017-10-28T20:53:08.466Z,19.03
2017-10-28T20:55:36.108Z,17.93
2017-10-28T20:58:03.690Z,16.80
2017-10-28T21:00:31.304Z,15.90
2017-10-28T21:02:59.627Z,15.00
2017-10-28T21:05:28.107Z,15.57
2017-10-28T21:07:56.468Z,16.10
2017-10-28T21:10:24.051Z,16.03
2017-10-28T21:12:52.422Z,16.00
2017-10-28T21:15:20.762Z,15.13
2017-10-28T21:17:48.389Z,17.70
2017-10-28T21:20:15.984Z,16.00
2017-10-28T21:22:43.589Z,16.83
2017-10-28T21:25:11.954Z,16.23
2017-10-28T21:27:39.571Z,17.53
2017-10-28T21:30:07.196Z,12.93
2017-10-28T21:32:34.820Z,13.80
2017-10-28T21:35:02.435Z,15.83
2017-10-28T21:37:30.863Z,13.53
2017-10-28T21:39:58.435Z,13.43
2017-10-28T21:42:26.035Z,14.37
2017-10-28T21:44:53.606Z,13.13
2017-10-28T21:47:22.145Z,14.17
2017-10-28T21:49:49.752Z,13.83
2017-10-28T21:52:17.605Z,13.40
2017-10-28T21:54:45.961Z,13.87
2017-10-28T21:57:13.596Z,14.97
2017-10-28T21:59:41.187Z,17.90
2017-10-28T22:02:08.782Z,16.20
2017-10-28T22:04:37.090Z,16.37
2017-10-28T22:07:04.695Z,17.47
2017-10-28T22:09:32.276Z,19.03
2017-10-28T22:11:59.836Z,19.97
2017-10-28T22:14:29.110Z,20.57
2017-10-28T22:16:56.685Z,21.87
2017-10-28T22:19:24.295Z,22.03
2017-10-28T22:21:52.670Z,23.13
2017-10-28T22:24:23.445Z,23.90
2017-10-28T22:26:51.039Z,24.83
2017-10-28T22:29:18.633Z,26.27
2017-10-28T22:31:47.001Z,28.27
2017-10-28T22:34:15.335Z,26.07
2017-10-28T22:36:43.330Z,25.60
2017-10-28T22:39:11.116Z,26.07
2017-10-28T22:41:39.515Z,25.20
2017-10-28T22:44:07.176Z,26.07
2017-10-28T22:46:35.554Z,27.00
2017-10-28T22:49:03.143Z,29.27
2017-10-28T22:51:30.723Z,26.73
2017-10-28T22:53:58.314Z,25.50
2017-10-28T22:56:25.925Z,31.10
2017-10-28T22:58:53.596Z,28.13
2017-10-28T23:01:21.183Z,30.30
2017-10-28T23:03:48.763Z,26.77
2017-10-28T23:06:17.118Z,28.80
2017-10-28T23:08:44.719Z,27.17
2017-10-28T23:11:13.032Z,27.23
2017-10-28T23:13:40.622Z,26.70
2017-10-28T23:16:08.211Z,24.90
2017-10-28T23:18:36.599Z,27.93
2017-10-28T23:21:04.266Z,26.77
2017-10-28T23:23:32.789Z,27.70
2017-10-28T23:26:00.361Z,27.17
2017-10-28T23:28:27.951Z,26.50
2017-10-28T23:30:55.563Z,26.47
2017-10-28T23:33:23.150Z,26.13
2017-10-28T23:35:51.518Z,26.30
2017-10-28T23:38:19.125Z,24.93
2017-10-28T23:40:46.757Z,25.60
2017-10-28T23:43:14.324Z,25.33
2017-10-28T23:45:41.927Z,25.13
2017-10-28T23:48:10.279Z,25.53
2017-10-28T23:50:37.880Z,25.07
2017-10-28T23:53:05.496Z,24.63
2017-10-28T23:55:33.071Z,26.03
2017-10-28T23:58:00.646Z,22.13
